Time;durP1;ratioP1;P1;durP2;ratioP2;P2;SDS_P1;SDS_P2;PMS_P1;PMS_P2;Temp;Humidity;BMP_temperature;BMP_pressure;BME280_temperature;BME280_humidity;BME280_pressure;Samples;Min_cycle;Max_cycle;Signal;HPM_P1;HPM_P2
2022/08/05 00:01:40;;;;;;;;;;;19.80;99.90;;;;;;5089838;28;19977;-73
2022/08/05 00:04:05;;;;;;;;;;;19.70;99.90;;;;;;5056827;28;20011;-72
2022/08/05 00:06:31;;;;;;;;;;;19.80;99.90;;;;;;5075951;28;19924;-71
2022/08/05 00:08:56;;;;;;;;;;;19.70;99.90;;;;;;5074039;28;19924;-72
2022/08/05 00:11:22;;;;;;;;;;;19.70;99.90;;;;;;5073294;28;19942;-72
2022/08/05 00:13:48;;;;;;;;;;;19.80;99.90;;;;;;5083279;28;19920;-72
2022/08/05 00:16:14;;;;;;;;;;;19.80;99.90;;;;;;5075501;28;20298;-72
2022/08/05 00:18:40;;;;;;;;;;;19.80;99.90;;;;;;5084458;28;20007;-72
2022/08/05 00:21:06;;;;;;;;;;;19.80;99.90;;;;;;5093236;28;19943;-72
2022/08/05 00:23:31;;;;;;;;;;;19.80;99.90;;;;;;5091279;28;20349;-72
2022/08/05 00:25:57;;;;;;;;;;;19.80;99.90;;;;;;5089175;28;20275;-71
2022/08/05 00:28:22;;;;;;;;;;;19.80;99.90;;;;;;5074681;28;20523;-72
2022/08/05 00:30:48;;;;;;;;;;;19.80;99.90;;;;;;5079571;28;19920;-72
2022/08/05 00:33:15;;;;;;;;;;;19.80;99.90;;;;;;5082211;28;20426;-71
2022/08/05 00:35:40;;;;;;;;;;;19.80;99.90;;;;;;5075814;28;19927;-71
2022/08/05 00:38:06;;;;;;;;;;;19.70;99.90;;;;;;5085047;28;19924;-72
2022/08/05 00:40:32;;;;;;;;;;;19.70;99.90;;;;;;5092522;28;19935;-72
2022/08/05 00:42:59;;;;;;;;;;;19.70;99.90;;;;;;5092648;28;19924;-72
2022/08/05 00:45:25;;;;;;;;;;;19.70;99.90;;;;;;5084396;28;19931;-72
2022/08/05 00:47:50;;;;;;;;;;;19.70;99.90;;;;;;5073502;28;19920;-72
2022/08/05 00:50:16;;;;;;;;;;;19.60;99.90;;;;;;5084576;28;20382;-72
2022/08/05 00:52:42;;;;;;;;;;;19.60;99.90;;;;;;5076125;28;19920;-72
2022/08/05 00:55:07;;;;;;;;;;;19.60;99.90;;;;;;5079604;28;20386;-73
2022/08/05 00:57:33;;;;;;;;;;;19.60;99.90;;;;;;5092143;28;20331;-72
2022/08/05 00:59:58;;;;;;;;;;;19.60;99.90;;;;;;5088321;28;20361;-72
2022/08/05 01:02:24;;;;;;;;;;;19.60;99.90;;;;;;5071845;28;20050;-71
2022/08/05 01:04:49;;;;;;;;;;;19.50;99.90;;;;;;5089539;28;19999;-71
2022/08/05 01:07:15;;;;;;;;;;;19.50;99.90;;;;;;5081959;28;19932;-71
2022/08/05 01:09:40;;;;;;;;;;;19.50;99.90;;;;;;5089527;28;19923;-71
2022/08/05 01:12:08;;;;;;;;;;;19.50;99.90;;;;;;5077975;28;20565;-71
2022/08/05 01:14:35;;;;;;;;;;;19.50;99.90;;;;;;5092248;28;19963;-71
2022/08/05 01:17:05;;;;;;;;;;;19.50;99.90;;;;;;5069908;28;19932;-71
2022/08/05 01:19:33;;;;;;;;;;;19.50;99.90;;;;;;5072093;28;19920;-71
2022/08/05 01:22:10;;;;;;;;;;;19.60;99.90;;;;;;5084941;28;19983;-71
2022/08/05 01:24:38;;;;;;;;;;;19.50;99.90;;;;;;5071442;28;19946;-71
2022/08/05 01:27:24;;;;;;;;;;;19.60;99.90;;;;;;5078838;28;19971;-71
2022/08/05 01:29:53;;;;;;;;;;;19.60;99.90;;;;;;5078611;28;19920;-71
2022/08/05 01:32:21;;;;;;;;;;;19.50;99.90;;;;;;5091230;28;19920;-71
2022/08/05 01:34:49;;;;;;;;;;;19.50;99.90;;;;;;5090280;28;19963;-72
2022/08/05 01:37:17;;;;;;;;;;;19.40;99.90;;;;;;5079537;28;20290;-71
2022/08/05 01:39:44;;;;;;;;;;;19.40;99.90;;;;;;5070840;28;19986;-71
2022/08/05 01:42:12;;;;;;;;;;;19.40;99.90;;;;;;5070058;28;19932;-71
2022/08/05 01:44:37;;;;;;;;;;;19.40;99.90;;;;;;5088689;28;20505;-72
2022/08/05 01:47:03;;;;;;;;;;;19.40;99.90;;;;;;5080415;28;19921;-71
2022/08/05 01:49:29;;;;;;;;;;;19.40;99.90;;;;;;5087280;28;20354;-71
2022/08/05 01:51:56;;;;;;;;;;;19.40;99.90;;;;;;5090260;28;19931;-71
2022/08/05 01:54:23;;;;;;;;;;;19.40;99.90;;;;;;5058706;28;19924;-71
2022/08/05 01:56:50;;;;;;;;;;;19.30;99.90;;;;;;5090494;28;19920;-72
2022/08/05 01:59:16;;;;;;;;;;;19.30;99.90;;;;;;5086012;28;19921;-71
2022/08/05 02:01:42;;;;;;;;;;;19.30;99.90;;;;;;5081004;28;19920;-71
2022/08/05 02:04:08;;;;;;;;;;;19.30;99.90;;;;;;5090037;28;19920;-71
2022/08/05 02:06:34;;;;;;;;;;;19.40;99.90;;;;;;5089498;28;19924;-71
2022/08/05 02:09:00;;;;;;;;;;;19.30;99.90;;;;;;5085973;28;19930;-71
2022/08/05 02:11:31;;;;;;;;;;;19.30;99.90;;;;;;5081433;28;19920;-71
2022/08/05 02:14:01;;;;;;;;;;;19.30;99.90;;;;;;5071346;28;19924;-71
2022/08/05 02:16:40;;;;;;;;;;;19.30;99.90;;;;;;5082991;28;19973;-71
2022/08/05 02:19:23;;;;;;;;;;;19.20;99.90;;;;;;5090571;28;19927;-72
2022/08/05 02:22:00;;;;;;;;;;;19.30;99.90;;;;;;5073383;28;19920;-71
2022/08/05 02:24:35;;;;;;;;;;;19.30;99.90;;;;;;5082613;28;19920;-71
2022/08/05 02:27:02;;;;;;;;;;;19.20;99.90;;;;;;5070455;28;20015;-71
2022/08/05 02:29:28;;;;;;;;;;;19.20;99.90;;;;;;5083594;28;19963;-72
2022/08/05 02:31:56;;;;;;;;;;;19.20;99.90;;;;;;5090444;28;19927;-71
2022/08/05 02:34:22;;;;;;;;;;;19.20;99.90;;;;;;5088893;28;19958;-71
2022/08/05 02:36:49;;;;;;;;;;;19.10;99.90;;;;;;5090591;28;19920;-71
2022/08/05 02:39:16;;;;;;;;;;;19.20;99.90;;;;;;5090075;28;20354;-71
2022/08/05 02:41:41;;;;;;;;;;;19.10;99.90;;;;;;5082590;28;19968;-71
2022/08/05 02:44:08;;;;;;;;;;;19.00;99.90;;;;;;5084341;28;19990;-71
2022/08/05 02:46:34;;;;;;;;;;;19.00;99.90;;;;;;5083949;28;19924;-71
2022/08/05 02:49:00;;;;;;;;;;;19.00;99.90;;;;;;5083375;28;20410;-71
2022/08/05 02:51:26;;;;;;;;;;;19.00;99.90;;;;;;5089860;28;19919;-71
2022/08/05 02:53:52;;;;;;;;;;;19.00;99.90;;;;;;5076707;28;19926;-71
2022/08/05 02:56:18;;;;;;;;;;;19.00;99.90;;;;;;5090021;28;20431;-73
2022/08/05 02:58:44;;;;;;;;;;;19.00;99.90;;;;;;5090376;28;19920;-71
2022/08/05 03:01:12;;;;;;;;;;;19.00;99.90;;;;;;5089795;28;20003;-72
2022/08/05 03:03:40;;;;;;;;;;;19.00;99.90;;;;;;5090081;28;20007;-71
2022/08/05 03:06:06;;;;;;;;;;;19.00;99.90;;;;;;5070742;28;19920;-72
2022/08/05 03:08:33;;;;;;;;;;;19.00;99.90;;;;;;5071460;28;19959;-71
2022/08/05 03:10:59;;;;;;;;;;;19.00;99.90;;;;;;5090066;28;19970;-72
2022/08/05 03:13:24;;;;;;;;;;;18.90;99.90;;;;;;5089782;28;19967;-73
2022/08/05 03:15:50;;;;;;;;;;;19.00;99.90;;;;;;5070838;28;20003;-72
2022/08/05 03:18:15;;;;;;;;;;;18.90;99.90;;;;;;5070376;28;20015;-71
2022/08/05 03:20:41;;;;;;;;;;;18.90;99.90;;;;;;5070146;28;20363;-72
2022/08/05 03:23:07;;;;;;;;;;;18.90;99.90;;;;;;5084040;28;19924;-71
2022/08/05 03:25:33;;;;;;;;;;;18.90;99.90;;;;;;5077007;28;19923;-72
2022/08/05 03:28:00;;;;;;;;;;;18.90;99.90;;;;;;5076113;28;19920;-73
2022/08/05 03:30:27;;;;;;;;;;;18.90;99.90;;;;;;5089149;28;19924;-72
2022/08/05 03:32:53;;;;;;;;;;;18.90;99.90;;;;;;5076045;28;19920;-71
2022/08/05 03:35:19;;;;;;;;;;;18.90;99.90;;;;;;5076750;28;19924;-72
2022/08/05 03:37:44;;;;;;;;;;;18.90;99.90;;;;;;5075801;28;19927;-72
2022/08/05 03:40:11;;;;;;;;;;;18.80;99.90;;;;;;5089807;28;19920;-72
2022/08/05 03:42:38;;;;;;;;;;;18.80;99.90;;;;;;5074903;28;19921;-71
2022/08/05 03:45:04;;;;;;;;;;;18.80;99.90;;;;;;5075444;28;20022;-71
2022/08/05 03:47:30;;;;;;;;;;;18.70;99.90;;;;;;5082848;28;19920;-72
2022/08/05 03:49:56;;;;;;;;;;;18.70;99.90;;;;;;5076836;28;19927;-72
2022/08/05 03:52:23;;;;;;;;;;;18.70;99.90;;;;;;5076146;28;19921;-71
2022/08/05 03:54:58;;;;;;;;;;;18.70;99.90;;;;;;5082181;28;19967;-71
2022/08/05 03:57:25;;;;;;;;;;;18.70;99.90;;;;;;5082727;28;20057;-71
2022/08/05 04:00:00;;;;;;;;;;;18.70;99.90;;;;;;5078004;28;19983;-72
2022/08/05 04:02:27;;;;;;;;;;;18.70;99.90;;;;;;5075994;28;20433;-71
2022/08/05 04:04:53;;;;;;;;;;;18.70;99.90;;;;;;5089417;28;19927;-71
2022/08/05 04:07:19;;;;;;;;;;;18.70;99.90;;;;;;5085474;28;19921;-72
2022/08/05 04:09:44;;;;;;;;;;;18.70;99.90;;;;;;5069916;28;19920;-71
2022/08/05 04:12:10;;;;;;;;;;;18.60;99.90;;;;;;5082116;28;19932;-71
2022/08/05 04:14:36;;;;;;;;;;;18.70;99.90;;;;;;5080297;28;20028;-72
2022/08/05 04:17:01;;;;;;;;;;;18.70;99.90;;;;;;5085456;28;19927;-71
2022/08/05 04:19:28;;;;;;;;;;;18.60;99.90;;;;;;5069446;28;20294;-71
2022/08/05 04:21:53;;;;;;;;;;;18.60;99.90;;;;;;5069187;28;19935;-71
2022/08/05 04:24:19;;;;;;;;;;;18.70;99.90;;;;;;5068561;28;19920;-71
2022/08/05 04:26:44;;;;;;;;;;;18.60;99.90;;;;;;5055090;28;19927;-71
2022/08/05 04:29:10;;;;;;;;;;;18.60;99.90;;;;;;5091357;28;19920;-71
2022/08/05 04:31:35;;;;;;;;;;;18.60;99.90;;;;;;5074007;28;19931;-71
2022/08/05 04:34:01;;;;;;;;;;;18.60;99.90;;;;;;5092489;28;19928;-71
2022/08/05 04:36:26;;;;;;;;;;;18.60;99.90;;;;;;5073977;28;19947;-72
2022/08/05 04:38:53;;;;;;;;;;;18.50;99.90;;;;;;5092712;28;20370;-71
2022/08/05 04:41:19;;;;;;;;;;;18.50;99.90;;;;;;5091252;28;19920;-71
2022/08/05 04:43:45;;;;;;;;;;;18.60;99.90;;;;;;5092694;28;20356;-71
2022/08/05 04:46:10;;;;;;;;;;;18.50;99.90;;;;;;5071610;28;19920;-71
2022/08/05 04:48:36;;;;;;;;;;;18.50;99.90;;;;;;5082198;28;19919;-71
2022/08/05 04:51:01;;;;;;;;;;;18.60;99.90;;;;;;5089253;28;20365;-71
2022/08/05 04:53:27;;;;;;;;;;;18.60;99.90;;;;;;5082374;28;20007;-71
2022/08/05 04:55:53;;;;;;;;;;;18.60;99.90;;;;;;5074418;28;19924;-71
2022/08/05 04:58:19;;;;;;;;;;;18.60;99.90;;;;;;5092206;28;19920;-71
2022/08/05 05:00:44;;;;;;;;;;;18.60;99.90;;;;;;5091929;28;20633;-71
2022/08/05 05:03:10;;;;;;;;;;;18.60;99.90;;;;;;5092008;28;19967;-71
2022/08/05 05:05:36;;;;;;;;;;;18.60;99.90;;;;;;5091469;28;19928;-71
2022/08/05 05:08:02;;;;;;;;;;;18.60;99.90;;;;;;5092259;28;20393;-71
2022/08/05 05:10:32;;;;;;;;;;;18.60;99.90;;;;;;5091429;28;19950;-71
2022/08/05 05:12:58;;;;;;;;;;;18.60;99.90;;;;;;5091761;28;19963;-71
2022/08/05 05:15:24;;;;;;;;;;;18.70;99.90;;;;;;5078142;28;20461;-71
2022/08/05 05:17:50;;;;;;;;;;;18.70;99.90;;;;;;5091768;28;19920;-71
2022/08/05 05:20:16;;;;;;;;;;;18.70;99.90;;;;;;5091426;28;19920;-71
2022/08/05 05:22:41;;;;;;;;;;;18.70;99.90;;;;;;5091624;28;19920;-71
2022/08/05 05:25:07;;;;;;;;;;;18.70;99.90;;;;;;5091757;28;19973;-73
2022/08/05 05:27:34;;;;;;;;;;;18.70;99.90;;;;;;5091823;28;19928;-70
2022/08/05 05:29:59;;;;;;;;;;;18.70;99.90;;;;;;5091870;28;19935;-70
2022/08/05 05:32:25;;;;;;;;;;;18.70;99.90;;;;;;5090649;28;19920;-70
2022/08/05 05:34:51;;;;;;;;;;;18.70;99.90;;;;;;5078080;28;20459;-70
2022/08/05 05:37:16;;;;;;;;;;;18.70;99.90;;;;;;5091653;28;19928;-71
2022/08/05 05:39:42;;;;;;;;;;;18.70;99.90;;;;;;5090490;28;19920;-70
2022/08/05 05:42:07;;;;;;;;;;;18.70;99.90;;;;;;5091265;28;20007;-70
2022/08/05 05:44:33;;;;;;;;;;;18.70;99.90;;;;;;5091228;28;19943;-70
2022/08/05 05:46:59;;;;;;;;;;;18.70;99.90;;;;;;5081725;28;19924;-70
2022/08/05 05:49:25;;;;;;;;;;;18.70;99.90;;;;;;5087394;28;19928;-70
2022/08/05 05:51:50;;;;;;;;;;;18.70;99.90;;;;;;5090353;28;20306;-71
2022/08/05 05:54:16;;;;;;;;;;;18.70;99.90;;;;;;5090016;28;20346;-70
2022/08/05 05:56:41;;;;;;;;;;;18.70;99.90;;;;;;5081477;28;20306;-70
2022/08/05 05:59:07;;;;;;;;;;;18.70;99.90;;;;;;5071350;28;19982;-70
2022/08/05 06:01:33;;;;;;;;;;;18.70;99.90;;;;;;5071503;28;19924;-70
2022/08/05 06:03:59;;;;;;;;;;;18.60;99.90;;;;;;5071931;28;20440;-70
2022/08/05 06:06:24;;;;;;;;;;;18.60;99.90;;;;;;5071199;28;19924;-70
2022/08/05 06:08:50;;;;;;;;;;;18.60;99.90;;;;;;5074127;28;19955;-69
2022/08/05 06:11:15;;;;;;;;;;;18.50;99.90;;;;;;5090931;28;20270;-70
2022/08/05 06:13:41;;;;;;;;;;;18.50;99.90;;;;;;5090765;28;20397;-69
2022/08/05 06:16:06;;;;;;;;;;;18.50;99.90;;;;;;5090856;28;19938;-70
2022/08/05 06:18:32;;;;;;;;;;;18.50;99.90;;;;;;5087982;28;20008;-69
2022/08/05 06:20:57;;;;;;;;;;;18.50;99.90;;;;;;5072716;28;19999;-70
2022/08/05 06:23:23;;;;;;;;;;;18.50;99.90;;;;;;5077620;28;19974;-68
2022/08/05 06:25:50;;;;;;;;;;;18.60;99.90;;;;;;5070547;28;19921;-69
2022/08/05 06:28:15;;;;;;;;;;;18.60;99.90;;;;;;5079125;28;19920;-70
2022/08/05 06:30:41;;;;;;;;;;;18.60;99.90;;;;;;5088211;28;19923;-70
2022/08/05 06:33:06;;;;;;;;;;;18.80;99.90;;;;;;5089464;28;19959;-70
2022/08/05 06:35:32;;;;;;;;;;;18.80;99.90;;;;;;5089997;28;20042;-70
2022/08/05 06:37:57;;;;;;;;;;;18.90;99.90;;;;;;5090361;28;19928;-71
2022/08/05 06:40:23;;;;;;;;;;;19.00;99.90;;;;;;5090645;28;20279;-71
2022/08/05 06:42:49;;;;;;;;;;;19.00;99.90;;;;;;5090056;28;19920;-71
2022/08/05 06:45:15;;;;;;;;;;;19.10;99.90;;;;;;5085680;28;20628;-71
2022/08/05 06:47:40;;;;;;;;;;;19.20;99.90;;;;;;5085404;28;19946;-70
2022/08/05 06:50:06;;;;;;;;;;;19.20;99.90;;;;;;5090059;28;19920;-71
2022/08/05 06:52:31;;;;;;;;;;;19.30;99.90;;;;;;5089631;28;19969;-71
2022/08/05 06:54:57;;;;;;;;;;;19.30;99.90;;;;;;5089969;28;19966;-71
2022/08/05 06:57:22;;;;;;;;;;;19.40;99.90;;;;;;5089693;28;19969;-70
2022/08/05 06:59:48;;;;;;;;;;;19.40;99.90;;;;;;5090148;28;19989;-70
2022/08/05 07:02:13;;;;;;;;;;;19.50;99.90;;;;;;5084905;28;19920;-71
2022/08/05 07:04:39;;;;;;;;;;;19.60;99.90;;;;;;5079631;28;20332;-70
2022/08/05 07:07:04;;;;;;;;;;;19.70;99.90;;;;;;5077126;28;19978;-71
2022/08/05 07:09:30;;;;;;;;;;;19.70;99.90;;;;;;5090244;28;19924;-71
2022/08/05 07:11:56;;;;;;;;;;;19.80;99.90;;;;;;5077803;28;20649;-71
2022/08/05 07:17:25;;;;;;;;;;;20.00;99.90;;;;;;4987562;28;20299;-71
2022/08/05 07:19:53;;;;;;;;;;;20.10;99.90;;;;;;4987780;28;19921;-70
2022/08/05 07:22:21;;;;;;;;;;;20.10;99.90;;;;;;5029305;28;20020;-70
2022/08/05 07:24:46;;;;;;;;;;;20.20;99.90;;;;;;5084175;28;19928;-70
2022/08/05 07:27:12;;;;;;;;;;;20.20;99.90;;;;;;5059319;28;19920;-70
2022/08/05 07:29:38;;;;;;;;;;;20.20;99.90;;;;;;5089379;28;19945;-71
2022/08/05 07:32:04;;;;;;;;;;;20.20;99.90;;;;;;5083652;28;19920;-70
2022/08/05 07:34:29;;;;;;;;;;;20.30;99.90;;;;;;5072596;28;19928;-70
2022/08/05 07:36:55;;;;;;;;;;;20.30;99.90;;;;;;5077988;28;19920;-71
2022/08/05 07:39:20;;;;;;;;;;;20.40;99.90;;;;;;5077602;28;19920;-71
2022/08/05 07:41:46;;;;;;;;;;;20.40;99.90;;;;;;5089559;28;20305;-71
2022/08/05 07:44:12;;;;;;;;;;;20.50;99.90;;;;;;5089135;28;20060;-70
2022/08/05 07:46:37;;;;;;;;;;;20.60;99.90;;;;;;5057816;28;19920;-71
2022/08/05 07:49:03;;;;;;;;;;;20.70;99.90;;;;;;5089826;28;19927;-72
2022/08/05 07:51:29;;;;;;;;;;;20.90;99.90;;;;;;5076013;28;19966;-71
2022/08/05 07:53:54;;;;;;;;;;;21.00;99.90;;;;;;5076570;28;20378;-71
2022/08/05 07:56:20;;;;;;;;;;;21.00;99.90;;;;;;5075622;28;20358;-71
2022/08/05 07:58:45;;;;;;;;;;;21.00;99.90;;;;;;5076138;28;19974;-71
2022/08/05 08:01:11;;;;;;;;;;;21.00;99.90;;;;;;5089270;28;19920;-72
2022/08/05 08:03:37;;;;;;;;;;;21.10;99.90;;;;;;5078318;28;20374;-70
2022/08/05 08:06:02;;;;;;;;;;;21.10;99.90;;;;;;5092498;28;19990;-71
2022/08/05 08:08:28;;;;;;;;;;;21.20;99.90;;;;;;5080425;28;20015;-71
2022/08/05 08:10:55;;;;;;;;;;;21.20;99.90;;;;;;5075257;28;20014;-71
2022/08/05 08:13:21;;;;;;;;;;;21.20;99.90;;;;;;5080738;28;20357;-70
2022/08/05 08:15:46;;;;;;;;;;;21.20;99.90;;;;;;5080172;28;20002;-71
2022/08/05 08:18:12;;;;;;;;;;;21.30;99.90;;;;;;5079695;28;19928;-71
2022/08/05 08:20:38;;;;;;;;;;;21.30;99.90;;;;;;5085967;28;19921;-71
2022/08/05 08:23:03;;;;;;;;;;;21.30;99.90;;;;;;5086477;28;19920;-71
2022/08/05 08:25:29;;;;;;;;;;;21.40;99.50;;;;;;5072406;28;19966;-71
2022/08/05 08:27:55;;;;;;;;;;;21.50;99.60;;;;;;5086383;28;20489;-71
2022/08/05 08:30:21;;;;;;;;;;;21.60;99.40;;;;;;5079853;28;19920;-71
2022/08/05 08:32:46;;;;;;;;;;;21.70;98.60;;;;;;5092957;28;19920;-71
2022/08/05 08:35:12;;;;;;;;;;;21.90;98.00;;;;;;5092394;28;20301;-71
2022/08/05 08:37:37;;;;;;;;;;;22.10;98.40;;;;;;5074229;28;19920;-71
2022/08/05 08:40:03;;;;;;;;;;;22.10;97.50;;;;;;5093142;28;19920;-71
2022/08/05 08:42:29;;;;;;;;;;;22.10;97.90;;;;;;5091921;28;19920;-71
2022/08/05 08:44:56;;;;;;;;;;;22.20;98.00;;;;;;5078898;28;19920;-72
2022/08/05 08:47:23;;;;;;;;;;;22.30;98.00;;;;;;5072499;28;19921;-72
2022/08/05 08:49:50;;;;;;;;;;;22.30;96.80;;;;;;5092127;28;19963;-71
2022/08/05 08:52:21;;;;;;;;;;;22.10;97.20;;;;;;5074313;28;19934;-71
2022/08/05 08:54:48;;;;;;;;;;;22.00;97.20;;;;;;5079067;28;19977;-71
2022/08/05 08:57:14;;;;;;;;;;;22.00;97.80;;;;;;5091743;28;20354;-71
2022/08/05 08:59:40;;;;;;;;;;;22.00;97.00;;;;;;5073829;28;19974;-71
2022/08/05 09:02:05;;;;;;;;;;;22.20;97.30;;;;;;5090920;28;20374;-70
2022/08/05 09:04:36;;;;;;;;;;;22.20;97.30;;;;;;5090501;28;19943;-70
2022/08/05 09:07:03;;;;;;;;;;;22.20;96.30;;;;;;5091974;28;19920;-70
2022/08/05 09:09:29;;;;;;;;;;;22.20;96.60;;;;;;5092090;28;19927;-71
2022/08/05 09:11:54;;;;;;;;;;;22.20;96.70;;;;;;5091290;28;19927;-70
2022/08/05 09:14:20;;;;;;;;;;;22.10;97.00;;;;;;5091386;28;19920;-70
2022/08/05 09:16:46;;;;;;;;;;;21.90;97.30;;;;;;5090425;28;19931;-70
2022/08/05 09:19:12;;;;;;;;;;;21.80;97.70;;;;;;5091147;28;20362;-71
2022/08/05 09:21:37;;;;;;;;;;;21.90;97.80;;;;;;5090644;28;19920;-70
2022/08/05 09:24:11;;;;;;;;;;;22.10;98.00;;;;;;5091037;28;20727;-70
2022/08/05 09:26:37;;;;;;;;;;;22.30;97.60;;;;;;5087782;28;19928;-70
2022/08/05 09:29:07;;;;;;;;;;;22.40;98.00;;;;;;5081223;28;19965;-70
2022/08/05 09:31:33;;;;;;;;;;;22.60;97.60;;;;;;5089451;28;20332;-71
2022/08/05 09:34:00;;;;;;;;;;;22.80;97.70;;;;;;5085391;28;19920;-71
2022/08/05 09:36:44;;;;;;;2.10;0.30;;;23.50;97.80;;;;;;5084616;28;20013;-70
2022/08/05 09:39:12;;;;;;;1.08;0.32;;;24.30;97.30;;;;;;5083663;28;20461;-72
2022/08/05 09:42:17;;;;;;;2.30;0.20;;;24.60;96.00;;;;;;5085572;28;20418;-72
2022/08/05 09:44:48;;;;;;;1.80;0.10;;;24.10;94.70;;;;;;4987235;28;20438;-71
2022/08/05 09:47:16;;;;;;;2.90;0.30;;;23.50;94.60;;;;;;5069179;28;20951;-71
2022/08/05 09:49:53;;;;;;;1.15;0.20;;;23.20;95.30;;;;;;5071935;28;20427;-72
2022/08/05 09:52:28;;;;;;;1.55;0.20;;;23.30;95.10;;;;;;5082487;28;20457;-72
2022/08/05 09:55:08;;;;;;;3.00;0.30;;;23.70;95.60;;;;;;5080321;28;20504;-72
2022/08/05 09:57:41;;;;;;;0.77;0.10;;;24.20;94.90;;;;;;5072109;28;20465;-71
2022/08/05 10:00:11;;;;;;;0.93;0.13;;;24.40;93.90;;;;;;5089683;28;20421;-72
2022/08/05 10:02:43;;;;;;;1.27;0.17;;;24.70;93.50;;;;;;5075696;28;20926;-72
2022/08/05 10:05:17;;;;;;;1.23;0.10;;;25.10;92.40;;;;;;5082808;28;20452;-72
2022/08/05 10:07:43;;;;;;;;;;;25.30;91.70;;;;;;5082970;28;20775;-72
2022/08/05 10:10:09;;;;;;;;;;;25.10;90.30;;;;;;5090434;28;19964;-71
2022/08/05 10:12:48;;;;;;;;;;;24.70;89.10;;;;;;5085605;28;19974;-71
2022/08/05 10:15:28;;;;;;;;;;;24.60;89.10;;;;;;5090441;28;19920;-71
2022/08/05 10:18:09;;;;;;;;;;;24.70;90.40;;;;;;5085275;28;19927;-72
2022/08/05 10:20:38;;;;;;;2.13;0.17;;;25.10;88.70;;;;;;5080914;28;19920;-72
2022/08/05 10:23:04;;;;;;;;;;;25.40;87.20;;;;;;5079911;28;20059;-72
2022/08/05 10:25:30;;;;;;;;;;;25.60;84.60;;;;;;5078986;28;19920;-72
2022/08/05 10:27:56;;;;;;;;;;;25.70;83.90;;;;;;5060003;28;20390;-72
2022/08/05 10:30:22;;;;;;;;;;;25.60;82.70;;;;;;5070686;28;20028;-71
2022/08/05 10:32:47;;;;;;;;;;;25.30;80.40;;;;;;5069017;28;20023;-72
2022/08/05 10:35:13;;;;;;;;;;;25.20;79.10;;;;;;5075979;28;20014;-72
2022/08/05 10:37:39;;;;;;;;;;;25.50;78.10;;;;;;5082060;28;19926;-73
2022/08/05 10:40:15;;;;;;;0.93;0.10;;;25.80;76.40;;;;;;5071724;28;19920;-72
2022/08/05 10:42:43;;;;;;;0.47;0.10;;;25.70;74.50;;;;;;5068361;28;20411;-72
2022/08/05 10:45:12;;;;;;;1.70;0.10;;;25.80;76.00;;;;;;5078477;28;20404;-72
2022/08/05 10:47:43;;;;;;;;;;;26.10;75.00;;;;;;5073047;28;20037;-72
2022/08/05 10:50:12;;;;;;;;;;;26.20;71.60;;;;;;5071131;28;19932;-71
2022/08/05 10:52:46;;;;;;;;;;;26.20;71.10;;;;;;5071615;28;19932;-72
2022/08/05 10:55:13;;;;;;;2.15;0.25;;;26.30;65.40;;;;;;5070177;28;19924;-72
2022/08/05 10:57:44;;;;;;;1.10;0.00;;;26.20;66.50;;;;;;5076686;28;20404;-71
2022/08/05 11:00:13;;;;;;;0.82;0.10;;;26.30;65.50;;;;;;5071215;28;20161;-72
2022/08/05 11:03:05;;;;;;;1.13;0.00;;;26.30;65.50;;;;;;5054134;28;20051;-72
2022/08/05 11:05:32;;;;;;;1.63;0.10;;;26.20;63.50;;;;;;5086431;28;20426;-72
2022/08/05 11:08:01;;;;;;;2.08;0.10;;;26.20;64.60;;;;;;5081542;28;20422;-71
2022/08/05 11:10:27;;;;;;;1.02;0.10;;;26.40;65.70;;;;;;5082173;28;20501;-71
2022/08/05 11:12:54;;;;;;;1.77;0.03;;;26.50;61.10;;;;;;5087634;28;20412;-72
2022/08/05 11:15:31;;;;;;;1.80;0.25;;;26.50;62.00;;;;;;5083219;28;20583;-71
2022/08/05 11:18:11;;;;;;;;;;;26.70;63.80;;;;;;5085290;28;20044;-71
2022/08/05 11:20:50;;;;;;;1.75;0.10;;;26.80;58.20;;;;;;5083278;28;19965;-71
2022/08/05 11:23:31;;;;;;;2.53;0.20;;;26.60;58.20;;;;;;5087594;28;20406;-71
2022/08/05 11:26:18;;;;;;;5.80;0.30;;;26.40;58.80;;;;;;5085152;28;20429;-71
2022/08/05 11:28:52;;;;;;;5.82;0.65;;;26.50;59.60;;;;;;5087920;28;20430;-72
2022/08/05 11:31:30;;;;;;;1.27;0.10;;;26.80;59.80;;;;;;5083838;28;20432;-72
2022/08/05 11:33:57;;;;;;;4.75;0.40;;;26.80;59.30;;;;;;5084175;28;20045;-71
2022/08/05 11:36:39;;;;;;;1.00;0.25;;;27.00;58.30;;;;;;5079877;28;20140;-72
2022/08/05 11:39:07;;;;;;;1.05;0.10;;;27.20;59.00;;;;;;5090992;28;20056;-71
2022/08/05 11:41:36;;;;;;;1.17;0.10;;;27.10;55.00;;;;;;5077334;28;20419;-72
2022/08/05 11:44:14;;;;;;;2.33;0.20;;;26.90;54.70;;;;;;5081472;28;20414;-72
2022/08/05 11:46:41;;;;;;;1.73;0.10;;;26.80;57.00;;;;;;5078744;28;20534;-71
2022/08/05 11:49:10;;;;;;;1.48;0.10;;;26.80;57.40;;;;;;5085562;28;20841;-71
2022/08/05 11:51:36;;;;;;;1.77;0.00;;;26.90;57.00;;;;;;5091447;28;20491;-71
2022/08/05 11:54:02;;;;;;;13.45;1.45;;;26.90;57.00;;;;;;5088240;28;20059;-72
2022/08/05 11:56:48;;;;;;;2.03;0.10;;;26.70;58.20;;;;;;5090181;28;20409;-71
2022/08/05 11:59:18;;;;;;;1.30;0.13;;;26.60;58.30;;;;;;5069766;28;20510;-71
2022/08/05 12:01:55;;;;;;;2.42;0.25;;;26.40;57.90;;;;;;5089631;28;20425;-71
2022/08/05 12:04:22;;;;;;;5.60;0.30;;;26.00;58.50;;;;;;5086468;28;20522;-71
2022/08/05 12:06:48;;;;;;;1.30;0.13;;;25.70;60.10;;;;;;5076851;28;20481;-70
2022/08/05 12:09:17;;;;;;;1.90;0.20;;;25.60;59.70;;;;;;5088732;28;20421;-71
2022/08/05 12:11:46;;;;;;;1.90;0.20;;;25.40;59.40;;;;;;5091224;28;20481;-70
2022/08/05 12:14:12;;;;;;;1.48;0.10;;;25.40;60.10;;;;;;5070523;28;20409;-71
2022/08/05 12:16:42;;;;;;;3.30;0.10;;;25.60;61.20;;;;;;5092871;28;20097;-71
2022/08/05 12:19:12;;;;;;;1.95;0.10;;;25.70;60.10;;;;;;5086632;28;20045;-71
2022/08/05 12:21:45;;;;;;;;;;;26.00;62.20;;;;;;5087526;28;20062;-72
2022/08/05 12:24:14;;;;;;;;;;;26.30;60.60;;;;;;5085414;28;19999;-72
2022/08/05 12:26:39;;;;;;;;;;;26.40;58.60;;;;;;5088352;28;20330;-72
2022/08/05 12:29:10;;;;;;;1.38;0.17;;;26.30;57.50;;;;;;5087946;28;19920;-71
2022/08/05 12:31:36;;;;;;;2.55;0.15;;;26.30;57.80;;;;;;5087360;28;20418;-71
2022/08/05 12:34:04;;;;;;;0.68;0.00;;;26.40;57.80;;;;;;5088726;28;20460;-71
2022/08/05 12:36:31;;;;;;;3.75;0.20;;;26.40;58.20;;;;;;5088329;28;20452;-71
2022/08/05 12:38:57;;;;;;;;;;;26.40;58.80;;;;;;5088535;28;20072;-71
2022/08/05 12:41:28;;;;;;;2.70;0.10;;;26.40;59.40;;;;;;5082940;28;19923;-71
2022/08/05 12:43:56;;;;;;;1.75;0.10;;;26.40;60.50;;;;;;5083283;28;20055;-72
2022/08/05 12:46:25;;;;;;;0.13;0.00;;;26.70;59.60;;;;;;5089762;28;20036;-71
2022/08/05 12:49:00;;;;;;;;;;;26.90;56.30;;;;;;5088069;28;20052;-71
2022/08/05 12:51:26;;;;;;;;;;;26.80;56.40;;;;;;5091790;28;19920;-71
2022/08/05 12:53:57;;;;;;;;;;;26.60;56.60;;;;;;5092794;28;20389;-71
2022/08/05 12:56:23;;;;;;;1.08;0.15;;;26.60;57.00;;;;;;5090866;28;20365;-72
2022/08/05 12:59:08;;;;;;;;;;;26.70;58.80;;;;;;5075919;28;20040;-72
2022/08/05 13:01:35;;;;;;;;;;;26.70;58.80;;;;;;5081547;28;19928;-72
2022/08/05 13:04:02;;;;;;;;;;;26.70;57.00;;;;;;5088629;28;19927;-72
2022/08/05 13:06:28;;;;;;;;;;;26.80;57.30;;;;;;5087415;28;19923;-72
2022/08/05 13:08:53;;;;;;;1.52;0.10;;;26.70;56.20;;;;;;5088115;28;19944;-71
2022/08/05 13:11:20;;;;;;;;;;;26.70;56.90;;;;;;5077544;28;20044;-72
2022/08/05 13:13:48;;;;;;;;;;;26.50;56.60;;;;;;5091292;28;19920;-71
2022/08/05 13:16:14;;;;;;;;;;;26.30;57.70;;;;;;5085766;28;19931;-72
2022/08/05 13:18:49;;;;;;;;;;;25.80;57.60;;;;;;5084896;28;19927;-71
2022/08/05 13:21:14;;;;;;;;;;;25.20;57.50;;;;;;5071197;28;19920;-71
2022/08/05 13:23:40;;;;;;;;;;;24.80;59.20;;;;;;5087728;28;19935;-71
2022/08/05 13:26:05;;;;;;;;;;;24.50;59.50;;;;;;5086791;28;19943;-71
2022/08/05 13:28:31;;;;;;;;;;;24.20;60.40;;;;;;5087679;28;19920;-71
2022/08/05 13:30:56;;;;;;;;;;;24.00;60.90;;;;;;5089976;28;19927;-71
2022/08/05 13:33:22;;;;;;;;;;;23.80;62.20;;;;;;5084169;28;20007;-72
2022/08/05 13:35:47;;;;;;;;;;;23.60;63.00;;;;;;5089851;28;19920;-71
2022/08/05 13:38:13;;;;;;;;;;;23.40;63.50;;;;;;5083750;28;20002;-71
2022/08/05 13:40:38;;;;;;;;;;;23.40;62.90;;;;;;5071644;28;19982;-71
2022/08/05 13:43:04;;;;;;;;;;;23.50;63.20;;;;;;5090796;28;20352;-71
2022/08/05 13:45:29;;;;;;;;;;;23.60;62.80;;;;;;5080919;28;20321;-71
2022/08/05 13:47:55;;;;;;;;;;;23.70;63.50;;;;;;5088225;28;20397;-71
2022/08/05 13:50:21;;;;;;;;;;;23.80;63.70;;;;;;5081168;28;20302;-71
2022/08/05 13:52:46;;;;;;;;;;;24.00;63.00;;;;;;5074775;28;19919;-71
2022/08/05 13:55:12;;;;;;;;;;;24.20;63.10;;;;;;5084325;28;19927;-71
2022/08/05 13:57:37;;;;;;;;;;;24.40;61.20;;;;;;5080520;28;20786;-71
2022/08/05 14:00:03;;;;;;;;;;;24.50;60.40;;;;;;5068760;28;19920;-71
2022/08/05 14:02:28;;;;;;;;;;;24.60;61.20;;;;;;5062079;28;20389;-71
2022/08/05 14:05:14;;;;;;;;;;;24.60;60.20;;;;;;5088529;28;19928;-71
2022/08/05 14:07:41;;;;;;;;;;;24.40;60.90;;;;;;5088149;28;20294;-71